createdAt,value
2024-04-14T00:00:08.733Z,13.51
2024-04-14T00:02:44.450Z,13.51
2024-04-14T00:05:15.334Z,13.52
2024-04-14T00:07:47.141Z,13.51
2024-04-14T00:10:18.182Z,13.52
2024-04-14T00:12:50.000Z,13.52
2024-04-14T00:15:21.645Z,13.54
2024-04-14T00:17:53.540Z,13.55
2024-04-14T00:20:26.093Z,13.55
2024-04-14T00:22:58.300Z,13.54
2024-04-14T00:25:28.841Z,13.51
2024-04-14T00:28:00.761Z,13.51
2024-04-14T00:30:31.449Z,13.52
2024-04-14T00:33:03.717Z,13.53
2024-04-14T00:35:34.158Z,13.54
2024-04-14T00:38:06.081Z,13.52
2024-04-14T00:40:36.706Z,13.52
2024-04-14T00:43:08.676Z,13.52
2024-04-14T00:45:39.074Z,13.53
2024-04-14T00:48:11.206Z,13.54
2024-04-14T00:50:42.423Z,13.56
2024-04-14T00:53:14.392Z,13.57
2024-04-14T00:55:44.692Z,13.57
2024-04-14T00:58:16.553Z,13.56
2024-04-14T01:00:47.067Z,13.55
2024-04-14T01:03:19.084Z,13.55
2024-04-14T01:05:49.904Z,13.55
2024-04-14T01:08:21.808Z,13.54
2024-04-14T01:10:52.273Z,13.52
2024-04-14T01:13:24.255Z,13.50
2024-04-14T01:15:54.556Z,13.47
2024-04-14T01:18:26.806Z,13.45
2024-04-14T01:20:58.390Z,13.44
2024-04-14T01:23:30.236Z,13.45
2024-04-14T01:26:00.663Z,13.44
2024-04-14T01:28:32.556Z,13.44
2024-04-14T01:31:03.185Z,13.45
2024-04-14T01:33:35.473Z,13.48
2024-04-14T01:36:06.540Z,13.50
2024-04-14T01:38:38.445Z,13.53
2024-04-14T01:41:09.166Z,13.56
2024-04-14T01:43:41.233Z,13.58
2024-04-14T01:46:11.766Z,13.59
2024-04-14T01:48:43.760Z,13.60
2024-04-14T01:51:14.862Z,13.60
2024-04-14T01:53:46.625Z,13.58
2024-04-14T01:56:17.042Z,13.57
2024-04-14T01:58:48.604Z,13.56
2024-04-14T02:01:19.228Z,13.51
2024-04-14T02:03:51.286Z,13.46
2024-04-14T02:06:21.833Z,13.41
2024-04-14T02:08:53.789Z,13.38
2024-04-14T02:11:24.664Z,13.38
2024-04-14T02:13:57.964Z,13.38
2024-04-14T02:16:28.657Z,13.38
2024-04-14T02:19:00.598Z,13.39
2024-04-14T02:21:31.257Z,13.38
2024-04-14T02:24:02.793Z,13.37
2024-04-14T02:26:33.385Z,13.36
2024-04-14T02:29:04.884Z,13.33
2024-04-14T02:31:35.309Z,13.30
2024-04-14T02:34:06.865Z,13.27
2024-04-14T02:36:37.958Z,13.24
2024-04-14T02:39:09.783Z,13.22
2024-04-14T02:41:40.504Z,13.20
2024-04-14T02:44:13.746Z,13.19
2024-04-14T02:46:44.931Z,13.18
2024-04-14T02:49:16.488Z,13.17
2024-04-14T02:51:47.139Z,13.18
2024-04-14T02:54:18.787Z,13.18
2024-04-14T02:56:49.609Z,13.18
2024-04-14T02:59:21.677Z,13.18
2024-04-14T03:01:53.748Z,13.19
2024-04-14T03:04:26.038Z,13.19
2024-04-14T03:06:56.806Z,13.19
2024-04-14T03:09:28.726Z,13.18
2024-04-14T03:11:59.227Z,13.16
2024-04-14T03:14:31.297Z,13.14
2024-04-14T03:17:01.811Z,13.11
2024-04-14T03:19:33.480Z,13.06
2024-04-14T03:22:04.048Z,13.02
2024-04-14T03:24:35.836Z,12.96
2024-04-14T03:27:06.306Z,12.91
2024-04-14T03:29:37.942Z,12.86
2024-04-14T03:32:08.782Z,12.82
2024-04-14T03:34:40.436Z,12.77
2024-04-14T03:37:11.890Z,12.72
2024-04-14T03:39:43.860Z,12.68
2024-04-14T03:42:14.181Z,12.64
2024-04-14T03:44:48.287Z,12.59
2024-04-14T03:47:18.815Z,12.57
2024-04-14T03:49:50.778Z,12.57
2024-04-14T03:52:21.121Z,12.58
2024-04-14T03:54:52.811Z,12.58
2024-04-14T03:57:23.287Z,12.59
2024-04-14T03:59:55.859Z,12.59
2024-04-14T04:02:26.070Z,12.59
2024-04-14T04:04:57.897Z,12.58
2024-04-14T04:07:28.263Z,12.57
2024-04-14T04:10:00.432Z,12.55
2024-04-14T04:12:30.786Z,12.52
2024-04-14T04:15:02.528Z,12.49
2024-04-14T04:17:33.109Z,12.46
2024-04-14T04:20:06.668Z,12.45
2024-04-14T04:22:36.866Z,12.44
2024-04-14T04:25:09.153Z,12.46
2024-04-14T04:27:39.360Z,12.50
2024-04-14T04:30:11.601Z,12.55
2024-04-14T04:32:41.803Z,12.61
2024-04-14T04:35:13.705Z,12.66
2024-04-14T04:37:43.927Z,12.72
2024-04-14T04:40:15.684Z,12.78
2024-04-14T04:42:46.056Z,12.83
2024-04-14T04:45:17.720Z,12.89
2024-04-14T04:47:48.145Z,12.92
2024-04-14T04:50:19.867Z,12.96
2024-04-14T04:52:50.285Z,13.02
2024-04-14T04:55:21.830Z,13.09
2024-04-14T04:57:52.196Z,13.18
2024-04-14T05:00:23.967Z,13.29
2024-04-14T05:02:54.464Z,13.42
2024-04-14T05:05:26.197Z,13.54
2024-04-14T05:07:56.615Z,13.67
2024-04-14T05:10:30.358Z,13.78
2024-04-14T05:13:04.629Z,13.90
2024-04-14T05:15:35.100Z,14.00
2024-04-14T05:18:07.016Z,14.10
2024-04-14T05:20:37.354Z,14.19
2024-04-14T05:23:11.968Z,14.28
2024-04-14T05:25:45.182Z,14.38
2024-04-14T05:28:15.902Z,14.48
2024-04-14T05:30:47.903Z,14.57
2024-04-14T05:33:18.640Z,14.64
2024-04-14T05:35:56.443Z,14.72
2024-04-14T05:38:28.060Z,14.80
2024-04-14T05:40:58.178Z,14.88
2024-04-14T05:43:30.034Z,14.96
2024-04-14T05:46:02.980Z,15.05
2024-04-14T05:48:34.863Z,15.15
2024-04-14T05:51:05.755Z,15.25
2024-04-14T05:53:37.366Z,15.36
2024-04-14T05:56:08.106Z,15.46
2024-04-14T05:58:39.757Z,15.55
2024-04-14T06:01:10.290Z,15.65
2024-04-14T06:03:42.354Z,15.75
2024-04-14T06:06:12.904Z,15.88
2024-04-14T06:08:44.436Z,15.99
2024-04-14T06:11:15.017Z,16.09
2024-04-14T06:13:46.719Z,16.21
2024-04-14T06:16:17.627Z,16.31
2024-04-14T06:18:50.009Z,16.41
2024-04-14T06:21:20.361Z,16.51
2024-04-14T06:23:52.020Z,16.60
2024-04-14T06:26:22.233Z,16.68
2024-04-14T06:28:53.881Z,16.77
2024-04-14T06:31:24.309Z,16.88
2024-04-14T06:33:55.715Z,16.98
2024-04-14T06:36:26.213Z,17.06
2024-04-14T06:38:58.607Z,17.13
2024-04-14T06:41:28.993Z,17.22
2024-04-14T06:44:00.755Z,17.30
2024-04-14T06:46:31.284Z,17.38
2024-04-14T06:49:03.379Z,17.49
2024-04-14T06:51:34.103Z,17.62
2024-04-14T06:54:05.944Z,17.76
2024-04-14T06:56:36.995Z,17.89
2024-04-14T06:59:09.044Z,18.04
2024-04-14T07:01:39.522Z,18.19
2024-04-14T07:04:11.235Z,18.33
2024-04-14T07:06:41.994Z,18.47
2024-04-14T07:09:13.811Z,18.57
2024-04-14T07:11:44.215Z,18.65
2024-04-14T07:14:16.003Z,18.74
2024-04-14T07:16:46.833Z,18.84
2024-04-14T07:19:18.241Z,18.95
2024-04-14T07:21:49.579Z,19.04
2024-04-14T07:24:20.978Z,19.16
2024-04-14T07:26:51.510Z,19.31
2024-04-14T07:29:23.283Z,19.47
2024-04-14T07:31:53.789Z,19.63
2024-04-14T07:34:25.348Z,19.78
2024-04-14T07:36:57.873Z,19.93
2024-04-14T07:39:29.725Z,20.04
2024-04-14T07:42:01.990Z,20.17
2024-04-14T07:44:33.397Z,20.27
2024-04-14T07:47:03.936Z,20.33
2024-04-14T07:49:37.503Z,20.36
2024-04-14T07:52:07.902Z,20.46
2024-04-14T07:54:39.547Z,20.58
2024-04-14T07:57:10.871Z,20.65
2024-04-14T07:59:44.608Z,20.70
2024-04-14T08:02:18.675Z,20.79
2024-04-14T08:04:49.247Z,20.90
2024-04-14T08:07:21.269Z,21.02
2024-04-14T08:09:51.834Z,21.14
2024-04-14T08:12:24.807Z,21.21
2024-04-14T08:14:55.312Z,21.24
2024-04-14T08:17:26.870Z,21.30
2024-04-14T08:19:57.299Z,21.39
2024-04-14T08:22:29.667Z,21.51
2024-04-14T08:25:00.233Z,21.67
2024-04-14T08:27:32.328Z,21.83
2024-04-14T08:30:03.107Z,21.96
2024-04-14T08:32:35.076Z,22.04
2024-04-14T08:35:05.980Z,22.09
2024-04-14T08:37:37.551Z,22.15
2024-04-14T08:40:08.204Z,22.23
2024-04-14T08:42:39.861Z,22.24
2024-04-14T08:45:11.033Z,22.24
2024-04-14T08:47:42.432Z,22.23
2024-04-14T08:50:14.043Z,22.20
2024-04-14T08:52:45.529Z,22.20
2024-04-14T08:55:16.165Z,22.23
2024-04-14T08:57:47.661Z,22.19
2024-04-14T09:00:19.692Z,22.20
2024-04-14T09:02:51.139Z,22.29
2024-04-14T09:05:23.248Z,22.42
2024-04-14T09:07:58.434Z,22.48
2024-04-14T09:10:31.212Z,22.48
2024-04-14T09:13:02.452Z,22.47
2024-04-14T09:15:42.159Z,22.46
2024-04-14T09:18:14.259Z,22.48
2024-04-14T09:20:44.807Z,22.44
2024-04-14T09:23:16.352Z,22.47
2024-04-14T09:25:46.769Z,22.56
2024-04-14T09:28:18.231Z,22.67
2024-04-14T09:30:49.296Z,22.77
2024-04-14T09:33:20.821Z,22.87
2024-04-14T09:35:51.649Z,23.00
2024-04-14T09:38:23.312Z,23.16
2024-04-14T09:40:53.729Z,23.31
2024-04-14T09:43:25.297Z,23.49
2024-04-14T09:45:55.448Z,23.67
2024-04-14T09:48:27.272Z,23.80
2024-04-14T09:50:57.391Z,23.92
2024-04-14T09:53:33.307Z,24.01
2024-04-14T09:56:05.311Z,24.18
2024-04-14T09:58:35.728Z,24.32
2024-04-14T10:01:08.080Z,24.45
2024-04-14T10:03:38.828Z,24.50
2024-04-14T10:06:11.270Z,24.49
2024-04-14T10:08:41.646Z,24.64
2024-04-14T10:11:13.426Z,24.78
2024-04-14T10:13:47.716Z,24.86
2024-04-14T10:16:20.112Z,25.00
2024-04-14T10:18:51.804Z,25.18
2024-04-14T10:21:24.080Z,25.30
2024-04-14T10:23:56.247Z,25.42
2024-04-14T10:26:27.932Z,25.51
2024-04-14T10:28:58.364Z,25.39
2024-04-14T10:31:34.943Z,25.17
2024-04-14T10:34:07.301Z,24.99
2024-04-14T10:36:38.702Z,24.82
2024-04-14T10:39:12.039Z,24.81
2024-04-14T10:41:42.481Z,24.91
2024-04-14T10:44:20.146Z,25.10
2024-04-14T10:46:51.688Z,25.10
2024-04-14T10:49:22.771Z,25.04
2024-04-14T10:51:54.368Z,25.00
2024-04-14T10:54:24.938Z,25.05
2024-04-14T10:56:56.396Z,25.27
2024-04-14T10:59:27.020Z,25.56
2024-04-14T11:02:01.254Z,25.62
2024-04-14T11:04:32.254Z,25.36
2024-04-14T11:07:04.086Z,25.01
2024-04-14T11:09:34.737Z,24.72
2024-04-14T11:12:06.841Z,24.46
2024-04-14T11:14:37.267Z,24.23
2024-04-14T11:17:11.489Z,23.95
2024-04-14T11:19:42.046Z,23.77
2024-04-14T11:22:19.668Z,24.00
2024-04-14T11:24:52.892Z,24.03
2024-04-14T11:27:28.198Z,24.08
2024-04-14T11:29:59.602Z,24.05
2024-04-14T11:32:37.619Z,23.95
2024-04-14T11:35:10.642Z,23.83
2024-04-14T11:37:46.121Z,23.71
2024-04-14T11:40:20.278Z,23.57
2024-04-14T11:42:50.842Z,23.42
2024-04-14T11:45:22.631Z,23.30
2024-04-14T11:47:53.087Z,23.24
2024-04-14T11:50:25.949Z,23.23
2024-04-14T11:52:56.971Z,23.19
2024-04-14T11:55:28.432Z,23.08
2024-04-14T11:57:59.005Z,22.95
2024-04-14T12:00:30.516Z,22.87
2024-04-14T12:03:01.202Z,22.99
2024-04-14T12:05:32.895Z,23.25
2024-04-14T12:08:03.537Z,23.37
2024-04-14T12:10:34.974Z,23.74
2024-04-14T12:13:05.840Z,24.19
2024-04-14T12:15:37.772Z,24.36
2024-04-14T12:18:11.258Z,25.21
2024-04-14T12:20:43.448Z,26.81
2024-04-14T12:23:14.300Z,28.47
2024-04-14T12:25:45.860Z,29.85
2024-04-14T12:28:16.261Z,29.70
2024-04-14T12:30:51.905Z,28.79
2024-04-14T12:33:24.343Z,27.84
2024-04-14T12:35:56.752Z,27.17
2024-04-14T12:38:29.119Z,26.54
2024-04-14T12:40:59.363Z,25.87
2024-04-14T12:43:31.108Z,25.14
2024-04-14T12:46:01.919Z,24.48
2024-04-14T12:48:34.113Z,23.97
2024-04-14T12:51:04.636Z,23.62
2024-04-14T12:53:37.024Z,23.37
2024-04-14T12:56:07.837Z,23.18
2024-04-14T12:58:39.179Z,22.98
2024-04-14T13:01:09.682Z,22.73
2024-04-14T13:03:41.416Z,22.41
2024-04-14T13:06:12.026Z,22.10
2024-04-14T13:08:43.747Z,21.84
2024-04-14T13:11:14.380Z,21.65
2024-04-14T13:13:46.047Z,21.49
2024-04-14T13:16:16.906Z,21.37
2024-04-14T13:18:48.487Z,21.30
2024-04-14T13:21:19.271Z,21.26
2024-04-14T13:23:50.740Z,21.20
2024-04-14T13:26:21.668Z,21.11
2024-04-14T13:28:53.209Z,21.06
2024-04-14T13:31:23.944Z,21.00
2024-04-14T13:33:55.571Z,20.90
2024-04-14T13:36:26.128Z,20.85
2024-04-14T13:38:57.589Z,20.99
2024-04-14T13:41:28.104Z,21.33
2024-04-14T13:43:59.560Z,21.87
2024-04-14T13:46:29.990Z,22.30
2024-04-14T13:49:01.648Z,22.55
2024-04-14T13:51:32.620Z,23.02
2024-04-14T13:54:05.823Z,23.14
2024-04-14T13:56:36.374Z,22.96
2024-04-14T13:59:08.471Z,22.77
2024-04-14T14:01:39.080Z,22.57
2024-04-14T14:04:11.161Z,22.39
2024-04-14T14:06:42.225Z,22.23
2024-04-14T14:09:13.968Z,22.02
2024-04-14T14:11:44.381Z,21.83
2024-04-14T14:14:16.259Z,21.63
2024-04-14T14:16:47.130Z,21.70
2024-04-14T14:19:18.743Z,22.31
2024-04-14T14:21:49.210Z,23.13
2024-04-14T14:24:20.837Z,23.59
2024-04-14T14:26:52.064Z,23.99
2024-04-14T14:29:23.618Z,23.70
2024-04-14T14:31:54.759Z,23.22
2024-04-14T14:34:45.063Z,22.80
2024-04-14T14:37:16.729Z,22.38
2024-04-14T14:39:47.354Z,22.12
2024-04-14T14:42:20.798Z,22.14
2024-04-14T14:44:51.261Z,22.69
2024-04-14T14:47:23.043Z,23.69
2024-04-14T14:49:53.631Z,24.03
2024-04-14T14:52:25.099Z,24.01
2024-04-14T14:54:55.569Z,23.84
2024-04-14T14:57:27.281Z,23.96
2024-04-14T14:59:57.709Z,24.40
2024-04-14T15:02:29.821Z,24.96
2024-04-14T15:05:00.516Z,24.97
2024-04-14T15:07:32.578Z,24.40
2024-04-14T15:10:03.270Z,23.81
2024-04-14T15:12:36.925Z,23.34
2024-04-14T15:15:08.034Z,22.96
2024-04-14T15:17:39.730Z,22.68
2024-04-14T15:20:10.234Z,22.42
2024-04-14T15:22:41.884Z,22.01
2024-04-14T15:25:12.169Z,21.59
2024-04-14T15:27:43.917Z,21.22
2024-04-14T15:30:14.606Z,20.88
2024-04-14T15:32:47.226Z,20.74
2024-04-14T15:35:17.606Z,20.80
2024-04-14T15:37:50.604Z,20.76
2024-04-14T15:40:20.832Z,20.68
2024-04-14T15:42:52.411Z,20.82
2024-04-14T15:45:22.696Z,20.95
2024-04-14T15:47:54.666Z,21.21
2024-04-14T15:50:24.894Z,21.52
2024-04-14T15:52:56.653Z,22.08
2024-04-14T15:55:27.162Z,22.21
2024-04-14T15:57:59.030Z,21.95
2024-04-14T16:00:29.176Z,21.62
2024-04-14T16:03:00.950Z,21.28
2024-04-14T16:05:31.855Z,20.99
2024-04-14T16:08:04.012Z,20.77
2024-04-14T16:10:34.330Z,20.61
2024-04-14T16:13:06.455Z,20.50
2024-04-14T16:15:37.064Z,20.36
2024-04-14T16:18:08.740Z,20.26
2024-04-14T16:20:39.414Z,20.20
2024-04-14T16:23:11.473Z,20.16
2024-04-14T16:25:41.905Z,20.16
2024-04-14T16:28:14.284Z,20.24
2024-04-14T16:30:44.808Z,20.31
2024-04-14T16:33:16.516Z,20.34
2024-04-14T16:35:47.020Z,20.25
2024-04-14T16:38:18.842Z,20.10
2024-04-14T16:40:49.479Z,19.92
2024-04-14T16:43:21.536Z,19.67
2024-04-14T16:45:51.992Z,19.38
2024-04-14T16:48:24.437Z,19.13
2024-04-14T16:50:55.383Z,18.95
2024-04-14T16:53:27.032Z,18.81
2024-04-14T16:55:57.526Z,18.67
2024-04-14T16:58:29.533Z,18.60
2024-04-14T17:01:00.038Z,18.54
2024-04-14T17:03:31.886Z,18.51
2024-04-14T17:06:03.067Z,18.50
2024-04-14T17:08:34.932Z,18.59
2024-04-14T17:11:05.276Z,18.69
2024-04-14T17:13:37.100Z,18.78
2024-04-14T17:16:07.506Z,18.78
2024-04-14T17:18:39.304Z,18.74
2024-04-14T17:21:09.726Z,18.68
2024-04-14T17:23:41.488Z,18.58
2024-04-14T17:26:12.010Z,18.47
2024-04-14T17:28:43.477Z,18.36
2024-04-14T17:31:14.241Z,18.28
2024-04-14T17:33:45.748Z,18.17
2024-04-14T17:36:16.072Z,18.06
2024-04-14T17:38:47.711Z,17.97
2024-04-14T17:41:18.142Z,17.89
2024-04-14T17:43:49.689Z,17.81
2024-04-14T17:46:20.277Z,17.75
2024-04-14T17:48:52.003Z,17.68
2024-04-14T17:51:22.303Z,17.60
2024-04-14T17:53:53.857Z,17.52
2024-04-14T17:56:24.182Z,17.43
2024-04-14T17:58:55.635Z,17.36
2024-04-14T18:01:26.108Z,17.30
2024-04-14T18:04:01.538Z,17.23
2024-04-14T18:06:33.258Z,17.17
2024-04-14T18:09:03.811Z,17.11
2024-04-14T18:11:35.628Z,17.06
2024-04-14T18:14:06.452Z,17.01
2024-04-14T18:16:38.046Z,16.96
2024-04-14T18:19:09.327Z,16.90
2024-04-14T18:21:40.958Z,16.86
2024-04-14T18:24:11.372Z,16.82
2024-04-14T18:26:43.125Z,16.76
2024-04-14T18:29:13.853Z,16.70
2024-04-14T18:31:45.516Z,16.63
2024-04-14T18:34:16.033Z,16.51
2024-04-14T18:36:48.172Z,16.41
2024-04-14T18:39:18.635Z,16.31
2024-04-14T18:41:50.298Z,16.20
2024-04-14T18:44:20.712Z,16.09
2024-04-14T18:46:52.368Z,16.00
2024-04-14T18:49:22.822Z,15.93
2024-04-14T18:51:54.383Z,15.84
2024-04-14T18:54:24.991Z,15.74
2024-04-14T18:56:57.684Z,15.65
2024-04-14T18:59:28.196Z,15.55
2024-04-14T19:01:59.979Z,15.41
2024-04-14T19:04:30.761Z,15.24
2024-04-14T19:07:02.876Z,15.10
2024-04-14T19:09:33.477Z,14.98
2024-04-14T19:12:05.755Z,14.88
2024-04-14T19:14:36.588Z,14.79
2024-04-14T19:17:09.818Z,14.71
2024-04-14T19:19:40.411Z,14.65
2024-04-14T19:22:12.083Z,14.61
2024-04-14T19:24:42.826Z,14.61
2024-04-14T19:27:14.565Z,14.62
2024-04-14T19:29:44.989Z,14.65
2024-04-14T19:32:16.684Z,14.65
2024-04-14T19:34:47.164Z,14.58
2024-04-14T19:37:18.743Z,14.47
2024-04-14T19:39:49.698Z,14.39
2024-04-14T19:42:21.312Z,14.27
2024-04-14T19:44:51.843Z,14.16
2024-04-14T19:47:23.704Z,14.04
2024-04-14T19:49:54.336Z,13.94
2024-04-14T19:52:26.279Z,13.87
2024-04-14T19:54:57.083Z,13.79
2024-04-14T19:57:29.491Z,13.65
2024-04-14T20:00:00.031Z,13.51
2024-04-14T20:02:31.802Z,13.42
2024-04-14T20:05:02.307Z,13.35
2024-04-14T20:07:33.757Z,13.27
2024-04-14T20:10:04.647Z,13.15
2024-04-14T20:12:36.405Z,13.07
2024-04-14T20:15:06.891Z,13.01
2024-04-14T20:17:38.741Z,13.01
2024-04-14T20:20:09.884Z,13.03
2024-04-14T20:22:41.622Z,13.08
2024-04-14T20:25:12.163Z,13.09
2024-04-14T20:27:44.274Z,13.11
2024-04-14T20:30:14.764Z,13.14
2024-04-14T20:32:46.415Z,13.17
2024-04-14T20:35:17.090Z,13.17
2024-04-14T20:37:48.606Z,13.19
2024-04-14T20:40:19.183Z,13.19
2024-04-14T20:42:50.749Z,13.20
2024-04-14T20:45:21.640Z,13.13
2024-04-14T20:47:53.453Z,13.04
2024-04-14T20:50:23.935Z,12.95
2024-04-14T20:52:57.945Z,12.91
2024-04-14T20:55:28.365Z,12.91
2024-04-14T20:58:03.528Z,12.88
2024-04-14T21:00:42.176Z,12.84
2024-04-14T21:03:14.003Z,12.80
2024-04-14T21:05:47.385Z,12.79
2024-04-14T21:08:19.023Z,12.77
2024-04-14T21:10:49.864Z,12.78
2024-04-14T21:13:21.509Z,12.77
2024-04-14T21:15:52.264Z,12.75
2024-04-14T21:18:24.407Z,12.78
2024-04-14T21:20:55.305Z,12.82
2024-04-14T21:23:26.894Z,12.82
2024-04-14T21:26:03.790Z,12.83
2024-04-14T21:28:37.988Z,12.84
2024-04-14T21:31:10.768Z,12.82
2024-04-14T21:33:41.136Z,12.79
2024-04-14T21:36:12.963Z,12.75
2024-04-14T21:38:43.184Z,12.71
2024-04-14T21:41:15.235Z,12.67
2024-04-14T21:43:46.839Z,12.65
2024-04-14T21:46:18.688Z,12.66
2024-04-14T21:48:48.797Z,12.61
2024-04-14T21:51:20.847Z,12.56
2024-04-14T21:53:51.262Z,12.54
2024-04-14T21:56:23.122Z,12.55
2024-04-14T21:58:53.348Z,12.57
2024-04-14T22:01:25.381Z,12.59
2024-04-14T22:04:05.269Z,12.63
2024-04-14T22:06:45.524Z,12.67
2024-04-14T22:09:16.161Z,12.68
2024-04-14T22:11:47.915Z,12.67
2024-04-14T22:14:19.575Z,12.64
2024-04-14T22:16:51.359Z,12.64
2024-04-14T22:19:21.658Z,12.65
2024-04-14T22:21:53.439Z,12.67
2024-04-14T22:24:23.853Z,12.66
2024-04-14T22:26:55.484Z,12.66
2024-04-14T22:29:26.115Z,12.65
2024-04-14T22:31:57.655Z,12.65
2024-04-14T22:34:28.204Z,12.63
2024-04-14T22:36:59.786Z,12.56
2024-04-14T22:39:30.991Z,12.48
2024-04-14T22:42:02.444Z,12.42
2024-04-14T22:44:32.870Z,12.32
2024-04-14T22:47:04.973Z,12.21
2024-04-14T22:49:35.872Z,12.13
2024-04-14T22:52:07.334Z,12.07
2024-04-14T22:54:37.619Z,12.03
2024-04-14T22:57:09.201Z,12.00
2024-04-14T22:59:39.524Z,11.96
2024-04-14T23:02:11.074Z,11.92
2024-04-14T23:04:41.611Z,11.85
2024-04-14T23:07:13.166Z,11.81
2024-04-14T23:09:43.723Z,11.78
2024-04-14T23:12:15.446Z,11.75
2024-04-14T23:14:46.298Z,11.75
2024-04-14T23:17:17.938Z,11.72
2024-04-14T23:19:49.691Z,11.67
2024-04-14T23:22:21.372Z,11.59
2024-04-14T23:24:51.885Z,11.49
2024-04-14T23:27:23.532Z,11.38
2024-04-14T23:29:53.749Z,11.25
2024-04-14T23:32:25.594Z,11.13
2024-04-14T23:35:00.954Z,11.02
2024-04-14T23:37:31.281Z,10.90
2024-04-14T23:40:04.098Z,10.84
2024-04-14T23:42:34.642Z,10.80
2024-04-14T23:45:06.545Z,10.80
2024-04-14T23:47:36.918Z,10.81
2024-04-14T23:50:08.932Z,10.85
2024-04-14T23:52:39.373Z,10.89
2024-04-14T23:55:10.970Z,10.93
2024-04-14T23:57:42.453Z,10.93
